Home > Products > Valid Products > MTR

000
SAUS44 KMRX 260801
MTRGDP
METAR KGDP 260751Z AUTO 22014G20KT 10SM CLR 14/M08 A2988 RMK AO2
SLP048 T01441078





000
SAUS44 KMRX 260701
MTRGDP
METAR KGDP 260651Z AUTO 23010KT 10SM CLR 15/M08 A2989 RMK AO2 SLP055
T01501083 402280083





000
SAUS44 KMRX 260701
MTRGDP
METAR KGDP 260651Z AUTO 23010KT 10SM CLR 15/M08 A2989 RMK AO2 SLP055
T01501083 402280083





000
SAUS44 KMRX 260601
MTRGDP
METAR KGDP 260551Z AUTO 23009KT 10SM CLR 15/M09 A2990 RMK AO2 SLP060
T01501089 10211 20150 51007





000
SAUS44 KMRX 260601
MTRGDP
METAR KGDP 260551Z AUTO 23009KT 10SM CLR 15/M09 A2990 RMK AO2 SLP060
T01501089 10211 20150 51007





000
SAUS44 KMRX 260501
MTRGDP
METAR KGDP 260451Z AUTO 21014KT 10SM CLR 16/M09 A2989 RMK AO2 SLP059
T01611089





000
SAUS44 KMRX 260501
MTRGDP
METAR KGDP 260451Z AUTO 21014KT 10SM CLR 16/M09 A2989 RMK AO2 SLP059
T01611089





000
SAUS44 KMRX 260401
MTRGDP
METAR KGDP 260351Z AUTO 25013G22KT 10SM CLR 17/M09 A2988 RMK AO2
SLP057 T01721094





000
SAUS44 KMRX 260301
MTRGDP
METAR KGDP 260251Z AUTO 26018KT 10SM CLR 17/M09 A2987 RMK AO2 SLP056
T01721089 51007





000
SAUS44 KMRX 260301
MTRGDP
METAR KGDP 260251Z AUTO 26018KT 10SM CLR 17/M09 A2987 RMK AO2 SLP056
T01721089 51007





000
SAUS44 KMRX 260201
MTRGDP
METAR KGDP 260151Z AUTO 25021KT 10SM CLR 18/M08 A2987 RMK AO2 PK WND
25037/0105 SLP065 T01781083





000
SAUS44 KMRX 260101
MTRGDP
METAR KGDP 260051Z AUTO 25030G39KT 10SM CLR 20/M08 A2986 RMK AO2 PK
WND 25044/2352 SLP054 T02001083





000
SAUS44 KMRX 260101
MTRGDP
METAR KGDP 260051Z AUTO 25030G39KT 10SM CLR 20/M08 A2986 RMK AO2 PK
WND 25044/2352 SLP054 T02001083





000
SAUS44 KMRX 260001
MTRGDP
METAR KGDP 252351Z AUTO 24031G44KT 10SM CLR 21/M08 A2985 RMK AO2 PK
WND 24044/2318 SLP052 T02061078 10228 20194 56007





000
SAUS44 KMRX 252301
MTRGDP
METAR KGDP 252251Z AUTO 24031G44KT 10SM CLR 22/M06 A2985 RMK AO2 PK
WND 23047/2217 SLP049 T02171056





000
SAUS44 KMRX 252203 COR
MTRGDP
METAR KGDP 252151Z AUTO 25030G43KT 10SM CLR 23/M06 A2986 RMK AO2 PK
WND 25046/2140 SLP051 T02281056





000
SAUS44 KMRX 252202 COR
MTRGDP
METAR KGDP 252151Z AUTO 25030G43KT 10SM CLR 23/M06 A2986 RMK AO2 PK
WND 25046/2140 SLP051 T02281056





000
SAUS44 KMRX 252201
MTRGDP
METAR KGDP 252151Z AUTO 25030G43KT 10SM CLR 23/M06 A2986 RMK AO2 PK
WND 25046/2140 SLP051 T02281056





000
SAUS44 KMRX 252101
MTRGDP
METAR KGDP 252051Z AUTO 25037G48KT 10SM CLR 22/M07 A2988 RMK AO2 PK
WND 25050/2032 SLP057 T02221072 58021





000
SAUS44 KMRX 252001
MTRGDP
METAR KGDP 251951Z AUTO 25034G47KT 10SM CLR 22/M06 A2992 RMK AO2 PK
WND 26047/1943 SLP071 T02171061





000
SAUS44 KMRX 251901
MTRGDP
METAR KGDP 251851Z AUTO 24031G42KT 10SM CLR 21/M07 A2993 RMK AO2 PK
WND 26048/1809 SLP072 T02061072





000
SAUS44 KMRX 251819
MTRGDP
SPECI KGDP 251809Z AUTO 25037G48KT 10SM SQ CLR 20/M05 A2994 RMK AO2
PK WND 26048/1809 T02001050





000
SAUS44 KMRX 251819
MTRGDP
SPECI KGDP 251809Z AUTO 25037G48KT 10SM SQ CLR 20/M05 A2994 RMK AO2
PK WND 26048/1809 T02001050





000
SAUS44 KMRX 251801
MTRGDP
METAR KGDP 251751Z AUTO 24034G45KT 10SM CLR 19/M04 A2995 RMK AO2 PK
WND 25045/1749 SLP082 T01941044 10194 20083 58018





000
SAUS44 KMRX 251801
MTRGDP
METAR KGDP 251751Z AUTO 24034G45KT 10SM CLR 19/M04 A2995 RMK AO2 PK
WND 25045/1749 SLP082 T01941044 10194 20083 58018





000
SAUS44 KMRX 251701
MTRGDP
METAR KGDP 251651Z AUTO 25029G40KT 10SM CLR 18/M01 A2999 RMK AO2 PK
WND 24041/1641 SLP095 T01831011





000
SAUS44 KMRX 251701
MTRGDP
METAR KGDP 251651Z AUTO 25029G40KT 10SM CLR 18/M01 A2999 RMK AO2 PK
WND 24041/1641 SLP095 T01831011





000
SAUS44 KMRX 251601
MTRGDP
METAR KGDP 251551Z AUTO 24029G35KT 10SM CLR 16/00 A3000 RMK AO2 PK
WND 25035/1550 SLP101 T01610000





000
SAUS44 KMRX 251501
MTRGDP
METAR KGDP 251451Z AUTO 25022KT 10SM CLR 14/00 A3001 RMK AO2 PK WND
25026/1450 SLP109 T01440000 50003





000
SAUS44 KMRX 251501
MTRGDP
METAR KGDP 251451Z AUTO 25022KT 10SM CLR 14/00 A3001 RMK AO2 PK WND
25026/1450 SLP109 T01440000 50003





000
SAUS44 KMRX 251401
MTRGDP
METAR KGDP 251351Z AUTO 24011KT 10SM CLR 09/M02 A3002 RMK AO2 SLP122
T00891017





000
SAUS44 KMRX 251401
MTRGDP
METAR KGDP 251351Z AUTO 24011KT 10SM CLR 09/M02 A3002 RMK AO2 SLP122
T00891017





000
SAUS44 KMRX 251301
MTRGDP
METAR KGDP 251251Z AUTO 24012KT 10SM CLR 09/M02 A3001 RMK AO2 SLP114
T00941017





000
SAUS44 KMRX 251201
MTRGDP
METAR KGDP 251151Z AUTO 23010KT 10SM CLR 09/M02 A3000 RMK AO2 SLP108
70001 T00891022 10128 20083 53006





000
SAUS44 KMRX 251201
MTRGDP
METAR KGDP 251151Z AUTO 23010KT 10SM CLR 09/M02 A3000 RMK AO2 SLP108
70001 T00891022 10128 20083 53006





000
SAUS44 KMRX 251101
MTRGDP
METAR KGDP 251051Z AUTO 23012KT 10SM CLR 09/M02 A2998 RMK AO2 SLP103
T00891022





000
SAUS44 KMRX 251001
MTRGDP
METAR KGDP 250951Z AUTO 23008KT 190V250 10SM CLR 09/M02 A2998 RMK
AO2 SLP099 T00891022





000
SAUS44 KMRX 250901
MTRGDP
METAR KGDP 250851Z AUTO 23013KT 10SM CLR 09/M03 A2998 RMK AO2 SLP097
T00941028 50004





000
SAUS44 KMRX 250901
MTRGDP
METAR KGDP 250851Z AUTO 23013KT 10SM CLR 09/M03 A2998 RMK AO2 SLP097
T00941028 50004





000
SAUS44 KMRX 250801
MTRGDP
METAR KGDP 250751Z AUTO 23017G26KT 10SM CLR 11/M03 A2998 RMK AO2 PK
WND 24027/0702 SLP097 T01061028





000
SAUS44 KMRX 250701
MTRGDP
METAR KGDP 250651Z AUTO 25022KT 10SM CLR 12/M03 A2997 RMK AO2 PK WND
26034/0615 SLP089 T01221033 402060089





000
SAUS44 KMRX 250601
MTRGDP
METAR KGDP 250551Z AUTO 25026KT 10SM CLR 13/M03 A2996 RMK AO2 PK WND
26035/0537 SLP089 T01281033 10183 20122 53003





000
SAUS44 KMRX 250501
MTRGDP
METAR KGDP 250451Z AUTO 24028G41KT 10SM CLR 14/M03 A2995 RMK AO2 PK
WND 25051/0413 SLP087 T01391033





000
SAUS44 KMRX 250501
MTRGDP
METAR KGDP 250451Z AUTO 24028G41KT 10SM CLR 14/M03 A2995 RMK AO2 PK
WND 25051/0413 SLP087 T01391033





000
SAUS44 KMRX 250401
MTRGDP
METAR KGDP 250351Z AUTO 24033G41KT 10SM CLR 14/M04 A2993 RMK AO2 PK
WND 25044/0328 SLP079 T01441039





000
SAUS44 KMRX 250301
MTRGDP
METAR KGDP 250251Z AUTO 25029G33KT 10SM CLR 14/M04 A2995 RMK AO2 PK
WND 25035/0221 SLP096 T01441044 51021





000
SAUS44 KMRX 250201
MTRGDP
METAR KGDP 250151Z AUTO 25026G31KT 10SM CLR 15/M05 A2995 RMK AO2 PK
WND 25042/0059 SLP093 T01501050





000
SAUS44 KMRX 250103 COR
MTRGDP
METAR KGDP 250051Z AUTO 25037G44KT 10SM CLR 17/M07 A2990 RMK AO2 PK
WND 26048/0017 SLP077 T01671067





000
SAUS44 KMRX 250102 COR
MTRGDP
METAR KGDP 250051Z AUTO 25037G44KT 10SM CLR 17/M07 A2990 RMK AO2 PK
WND 26048/0017 SLP077 T01671067





000
SAUS44 KMRX 250101
MTRGDP
METAR KGDP 250051Z AUTO 25037G44KT 10SM CLR 17/M07 A2990 RMK AO2 PK
WND 26048/0017 SLP077 T01671067





000
SAUS44 KMRX 250001
MTRGDP
METAR KGDP 242351Z AUTO 25039G48KT 10SM CLR 18/M07 A2988 RMK AO2 PK
WND 25048/2349 SLP060 T01831067 10206 20172 58006





000
SAUS44 KMRX 250001
MTRGDP
METAR KGDP 242351Z AUTO 25039G48KT 10SM CLR 18/M07 A2988 RMK AO2 PK
WND 25048/2349 SLP060 T01831067 10206 20172 58006





000
SAUS44 KMRX 242319
MTRGDP
SPECI KGDP 242309Z AUTO 25034G46KT 10SM SQ CLR 19/M07 A2989 RMK AO2
PK WND 25048/2257 T01891067





000
SAUS44 KMRX 242303 COR
MTRGDP
METAR KGDP 242251Z AUTO 25040G52KT 10SM CLR 19/M07 A2989 RMK AO2 PK
WND 24054/2239 SLP061 T01891072





000
SAUS44 KMRX 242303 COR
MTRGDP
METAR KGDP 242251Z AUTO 25040G52KT 10SM CLR 19/M07 A2989 RMK AO2 PK
WND 24054/2239 SLP061 T01891072





000
SAUS44 KMRX 242302 COR
MTRGDP
METAR KGDP 242251Z AUTO 25040G52KT 10SM CLR 19/M07 A2989 RMK AO2 PK
WND 24054/2239 SLP061 T01891072





000
SAUS44 KMRX 242302 COR
MTRGDP
METAR KGDP 242251Z AUTO 25040G52KT 10SM CLR 19/M07 A2989 RMK AO2 PK
WND 24054/2239 SLP061 T01891072





000
SAUS44 KMRX 242301
MTRGDP
METAR KGDP 242251Z AUTO 25040G52KT 10SM CLR 19/M07 A2989 RMK AO2 PK
WND 24054/2239 SLP061 T01891072





000
SAUS44 KMRX 242301
MTRGDP
METAR KGDP 242251Z AUTO 25040G52KT 10SM CLR 19/M07 A2989 RMK AO2 PK
WND 24054/2239 SLP061 T01891072





000
SAUS44 KMRX 242201
MTRGDP
METAR KGDP 242151Z AUTO 23022G43KT 10SM FEW085 19/M02 A2990 RMK AO2
PK WND 24047/2103 SLP062 T01941022





000
SAUS44 KMRX 242101
MTRGDP
METAR KGDP 242051Z AUTO 23030G50KT 190V250 10SM SQ CLR 19/M05 A2990
RMK AO2 PK WND 24051/2038 SLP064 T01941050 57009





000
SAUS44 KMRX 242001
MTRGDP
METAR KGDP 241951Z AUTO 25038G50KT 10SM CLR 19/M04 A2992 RMK AO2 PK
WND 24050/1950 SLP068 T01941044





000
SAUS44 KMRX 241901
MTRGDP
METAR KGDP 241851Z AUTO 24031G40KT 10SM SCT065 19/01 A2992 RMK AO2
PK WND 24045/1838 SLP069 T01940006





000
SAUS44 KMRX 241801
MTRGDP
METAR KGDP 241751Z AUTO 25035G41KT 10SM FEW070 18/04 A2994 RMK AO2
PK WND 25041/1750 SLP075 60001 T01780039 10178 20089 58009





000
SAUS44 KMRX 241701
MTRGDP
METAR KGDP 241651Z AUTO 25025G34KT 10SM CLR 16/06 A2997 RMK AO2 PK
WND 24034/1643 SLP092 T01610056





000
SAUS44 KMRX 241701
MTRGDP
METAR KGDP 241651Z AUTO 25025G34KT 10SM CLR 16/06 A2997 RMK AO2 PK
WND 24034/1643 SLP092 T01610056





000
SAUS44 KMRX 241601
MTRGDP
METAR KGDP 241551Z AUTO 24018G31KT 10SM CLR 15/06 A2997 RMK AO2 PK
WND 25031/1542 SLP090 T01500061





000
SAUS44 KMRX 241503 COR
MTRGDP
METAR KGDP 241451Z AUTO 24021G32KT 10SM SCT043 BKN060 11/05 A2997
RMK AO2 PK WND 26033/1417 SLP099 60001 T01110050 53011





000
SAUS44 KMRX 241503 COR
MTRGDP
METAR KGDP 241451Z AUTO 24021G32KT 10SM SCT043 BKN060 11/05 A2997
RMK AO2 PK WND 26033/1417 SLP099 60001 T01110050 53011





000
SAUS44 KMRX 241502 COR
MTRGDP
METAR KGDP 241451Z AUTO 24021G32KT 10SM SCT043 BKN060 11/05 A2997
RMK AO2 PK WND 26033/1417 SLP099 60001 T01110050 53011





000
SAUS44 KMRX 241501
MTRGDP
METAR KGDP 241451Z AUTO 24021G32KT 10SM SCT043 BKN060 11/05 A2997
RMK AO2 PK WND 26033/1417 SLP099 60001 T01110050 53011





000
SAUS44 KMRX 241401
MTRGDP
METAR KGDP 241351Z AUTO 26025G32KT 10SM CLR 11/06 A2995 RMK AO2 PK
WND 27034/1324 SLP091 T01060056





000
SAUS44 KMRX 241301
MTRGDP
METAR KGDP 241251Z AUTO 27021G27KT 10SM SCT037 SCT060 BKN075 09/06
A2995 RMK AO2 PK WND 25044/1226 RAB28E47 SLP093 P0001 T00890061





000
SAUS44 KMRX 241301
MTRGDP
METAR KGDP 241251Z AUTO 27021G27KT 10SM SCT037 SCT060 BKN075 09/06
A2995 RMK AO2 PK WND 25044/1226 RAB28E47 SLP093 P0001 T00890061





000
SAUS44 KMRX 241201
MTRGDP
METAR KGDP 241151Z AUTO 24019KT 10SM FEW050 BKN080 OVC100 12/06
A2993 RMK AO2 RAB37E51 SLP077 P0000 60000 T01220061 10156 20122
55000





000
SAUS44 KMRX 241201
MTRGDP
METAR KGDP 241151Z AUTO 24019KT 10SM FEW050 BKN080 OVC100 12/06
A2993 RMK AO2 RAB37E51 SLP077 P0000 60000 T01220061 10156 20122
55000





000
SAUS44 KMRX 241101
MTRGDP
METAR KGDP 241051Z AUTO 25013KT 10SM BKN065 OVC080 13/06 A2993 RMK
AO2 SLP071 T01330056





000
SAUS44 KMRX 241001
MTRGDP
METAR KGDP 240951Z AUTO 24017KT 10SM OVC075 13/05 A2993 RMK AO2 PK
WND 24026/0937 SLP071 T01330050





000
SAUS44 KMRX 240901
MTRGDP
METAR KGDP 240851Z AUTO 24015KT 10SM BKN090 14/05 A2993 RMK AO2 PK
WND 23032/0809 SLP072 T01390050 55007





000
SAUS44 KMRX 240801
MTRGDP
METAR KGDP 240751Z AUTO 23025KT 10SM CLR 14/05 A2992 RMK AO2 PK WND
24045/0703 SLP070 T01390050





000
SAUS44 KMRX 240703 COR
MTRGDP
METAR KGDP 240651Z AUTO 24037G44KT 10SM CLR 15/04 A2993 RMK AO2 PK
WND 25050/0618 SLP069 T01500044 402110133





000
SAUS44 KMRX 240702 COR
MTRGDP
METAR KGDP 240651Z AUTO 24037G44KT 10SM CLR 15/04 A2993 RMK AO2 PK
WND 25050/0618 SLP069 T01500044 402110133





000
SAUS44 KMRX 240701
MTRGDP
METAR KGDP 240651Z AUTO 24037G44KT 10SM CLR 15/04 A2993 RMK AO2 PK
WND 25050/0618 SLP069 T01500044 402110133





000
SAUS44 KMRX 240601
MTRGDP
METAR KGDP 240551Z AUTO 24029G41KT 10SM CLR 15/05 A2996 RMK AO2 PK
WND 24041/0543 SLP082 T01500050 10189 20150 56009





000
SAUS44 KMRX 240501
MTRGDP
METAR KGDP 240451Z AUTO 24025G33KT 10SM CLR 15/04 A2998 RMK AO2 PK
WND 24039/0352 SLP091 T01500044





000
SAUS44 KMRX 240501
MTRGDP
METAR KGDP 240451Z AUTO 24025G33KT 10SM CLR 15/04 A2998 RMK AO2 PK
WND 24039/0352 SLP091 T01500044





000
SAUS44 KMRX 240401
MTRGDP
METAR KGDP 240351Z AUTO 23035G42KT 10SM CLR 16/04 A2996 RMK AO2 PK
WND 24042/0350 SLP089 T01560039





000
SAUS44 KMRX 240301
MTRGDP
METAR KGDP 240251Z AUTO 20024G29KT 10SM CLR 16/05 A2999 RMK AO2 PK
WND 21034/0207 SLP100 T01560050 53009





000
SAUS44 KMRX 240201
MTRGDP
METAR KGDP 240151Z AUTO 21026G36KT 10SM CLR 16/06 A2997 RMK AO2 PK
WND 21043/0110 SLP094 T01610056





000
SAUS44 KMRX 240201
MTRGDP
METAR KGDP 240151Z AUTO 21026G36KT 10SM CLR 16/06 A2997 RMK AO2 PK
WND 21043/0110 SLP094 T01610056





000
SAUS44 KMRX 240101
MTRGDP
METAR KGDP 240051Z AUTO 22027G35KT 10SM SCT055 SCT070 BKN095 18/07
A2994 RMK AO2 PK WND 20035/0051 SLP079 T01780067





000
SAUS44 KMRX 240101
MTRGDP
METAR KGDP 240051Z AUTO 22027G35KT 10SM SCT055 SCT070 BKN095 18/07
A2994 RMK AO2 PK WND 20035/0051 SLP079 T01780067





000
SAUS44 KMRX 240001
MTRGDP
METAR KGDP 232351Z AUTO 23016KT 10SM FEW080 19/00 A2996 RMK AO2 PK
WND 24032/2252 SLP082 T01890000 10211 20183 55012





000
SAUS44 KMRX 240001
MTRGDP
METAR KGDP 232351Z AUTO 23016KT 10SM FEW080 19/00 A2996 RMK AO2 PK
WND 24032/2252 SLP082 T01890000 10211 20183 55012





000
SAUS44 KMRX 232301
MTRGDP
METAR KGDP 232251Z AUTO 24030G36KT 10SM CLR 21/M01 A2995 RMK AO2 PK
WND 24038/2246 SLP078 T02061011





000
SAUS44 KMRX 232203 COR
MTRGDP
METAR KGDP 232151Z AUTO 24014G24KT 10SM CLR 21/M03 A2997 RMK AO2
SLP083 T02061028





000
SAUS44 KMRX 232202 COR
MTRGDP
METAR KGDP 232151Z AUTO 24014G24KT 10SM CLR 21/M03 A2997 RMK AO2
SLP083 T02061028





000
SAUS44 KMRX 232201
MTRGDP
METAR KGDP 232151Z AUTO 24014G24KT 10SM CLR 21/M03 A2997 RMK AO2
SLP083 T02061028





000
SAUS44 KMRX 232101
MTRGDP
METAR KGDP 232051Z AUTO 25014KT 200V260 10SM CLR 20/M02 A3000 RMK
AO2 SLP093 T02001017 56013





000
SAUS44 KMRX 232001
MTRGDP
METAR KGDP 231951Z AUTO 25018KT 10SM CLR 19/M02 A3001 RMK AO2 PK WND
26026/1859 SLP095 T01941022





000
SAUS44 KMRX 231900
MTRGDP
METAR KGDP 231851Z AUTO 25019KT 10SM CLR 19/M02 A3002 RMK AO2 PK WND
25026/1831 SLP098 T01891022





000
SAUS44 KMRX 231801
MTRGDP
METAR KGDP 231751Z AUTO 24020KT 10SM CLR 18/M04 A3004 RMK AO2 SLP108
T01831044 10183 20133 50002





000
SAUS44 KMRX 231701
MTRGDP
METAR KGDP 231651Z AUTO 24017KT 10SM CLR 17/M04 A3005 RMK AO2 SLP113
T01721044





000
SAUS44 KMRX 231701
MTRGDP
METAR KGDP 231651Z AUTO 24017KT 10SM CLR 17/M04 A3005 RMK AO2 SLP113
T01721044





000
SAUS44 KMRX 231600
MTRGDP
METAR KGDP 231551Z AUTO 23011KT 10SM CLR 15/M04 A3006 RMK AO2 SLP118
T01501044





000
SAUS44 KMRX 231600
MTRGDP
METAR KGDP 231551Z AUTO 23011KT 10SM CLR 15/M04 A3006 RMK AO2 SLP118
T01501044





000
SAUS44 KMRX 231503 COR
MTRGDP
METAR KGDP 231451Z AUTO 25008KT 10SM CLR 14/M06 A3003 RMK AO2 SLP109
T01441061 51010





000
SAUS44 KMRX 231503 COR
MTRGDP
METAR KGDP 231451Z AUTO 25008KT 10SM CLR 14/M06 A3003 RMK AO2 SLP109
T01441061 51010





000
SAUS44 KMRX 231501
MTRGDP
METAR KGDP 231451Z AUTO 25008KT 10SM CLR 14/M06 A3003 RMK AO2 SLP109
T01441061 51010





000
SAUS44 KMRX 231501
MTRGDP
METAR KGDP 231451Z AUTO 25008KT 10SM CLR 14/M06 A3003 RMK AO2 SLP109
T01441061 51010





000
SAUS44 KMRX 231401
MTRGDP
METAR KGDP 231351Z AUTO 22008KT 10SM CLR 14/M07 A3003 RMK AO2 SLP110
T01391067





000
SAUS44 KMRX 231401
MTRGDP
METAR KGDP 231351Z AUTO 22008KT 10SM CLR 14/M07 A3003 RMK AO2 SLP110
T01391067





000
SAUS44 KMRX 231301
MTRGDP
METAR KGDP 231251Z AUTO 25006KT 10SM CLR 14/M07 A3001 RMK AO2 SLP100
T01391067





000
SAUS44 KMRX 231201
MTRGDP
METAR KGDP 231151Z AUTO 25008KT 10SM CLR 14/M07 A3000 RMK AO2 SLP091
T01391072 10172 20139 53001





000
SAUS44 KMRX 231201
MTRGDP
METAR KGDP 231151Z AUTO 25008KT 10SM CLR 14/M07 A3000 RMK AO2 SLP091
T01391072 10172 20139 53001





000
SAUS44 KMRX 231101
MTRGDP
METAR KGDP 231051Z AUTO 24006KT 10SM CLR 14/M08 A2999 RMK AO2 SLP086
T01391078





000
SAUS44 KMRX 231101
MTRGDP
METAR KGDP 231051Z AUTO 24006KT 10SM CLR 14/M08 A2999 RMK AO2 SLP086
T01391078





000
SAUS44 KMRX 231001
MTRGDP
METAR KGDP 230951Z AUTO 23011KT 10SM CLR 14/M08 A2999 RMK AO2 SLP081
T01441078





000
SAUS44 KMRX 230900
MTRGDP
METAR KGDP 230851Z AUTO 24008KT 10SM CLR 16/M08 A3000 RMK AO2 SLP084
T01561083 58005





    US Dept of Commerce
    National Oceanic and Atmospheric Administration
    National Weather Service
    1325 East West Highway
    Silver Spring, MD 20910
    Page Author: NWS Internet Services Team
Disclaimer
Information Quality
Credits
Glossary
Privacy Policy
Freedom of Information Act (FOIA)
About Us
Career Opportunities